Time;durP1;ratioP1;P1;durP2;ratioP2;P2;SDS_P1;SDS_P2;PMS_P1;PMS_P2;Temp;Humidity;BMP_temperature;BMP_pressure;BME280_temperature;BME280_humidity;BME280_pressure;Samples;Min_cycle;Max_cycle;Signal;HPM_P1;HPM_P2
2021/11/11 00:00:49;;;;;;;14.73;11.02;;;3.70;99.90;;;;;;2071827;28;20025;-69
2021/11/11 00:01:49;;;;;;;14.00;10.95;;;3.70;99.90;;;;;;2071056;28;20470;-68
2021/11/11 00:02:50;;;;;;;15.75;10.40;;;3.70;99.90;;;;;;2070715;28;20424;-69
2021/11/11 00:03:51;;;;;;;14.25;10.32;;;3.70;99.90;;;;;;2071380;28;20092;-69
2021/11/11 00:04:51;;;;;;;15.45;11.25;;;3.70;99.90;;;;;;2071275;28;20437;-69
2021/11/11 00:05:54;;;;;;;17.33;11.40;;;3.70;99.90;;;;;;2071455;28;20021;-69
2021/11/11 00:06:59;;;;;;;12.88;10.52;;;3.70;99.90;;;;;;2071640;28;20022;-69
2021/11/11 00:08:00;;;;;;;12.52;9.50;;;3.70;99.90;;;;;;2071233;28;20026;-69
2021/11/11 00:09:03;;;;;;;15.88;10.88;;;3.70;99.90;;;;;;2070549;28;20496;-69
2021/11/11 00:10:06;;;;;;;19.27;11.82;;;3.70;99.90;;;;;;2071240;28;20057;-69
2021/11/11 00:11:06;;;;;;;14.45;11.38;;;3.70;99.90;;;;;;2071795;28;20079;-69
2021/11/11 00:12:07;;;;;;;15.43;10.57;;;3.70;99.90;;;;;;2063587;28;20023;-69
2021/11/11 00:13:08;;;;;;;13.02;10.57;;;3.70;99.90;;;;;;2066602;28;20172;-69
2021/11/11 00:14:10;;;;;;;13.05;10.40;;;3.60;99.90;;;;;;2071567;28;20041;-69
2021/11/11 00:15:13;;;;;;;14.32;11.15;;;3.60;99.90;;;;;;2071310;28;20022;-69
2021/11/11 00:16:15;;;;;;;15.50;11.48;;;3.60;99.90;;;;;;2070976;28;20535;-69
2021/11/11 00:17:16;;;;;;;15.50;11.00;;;3.60;99.90;;;;;;2071197;28;20108;-69
2021/11/11 00:18:17;;;;;;;17.85;11.23;;;3.60;99.90;;;;;;2070941;28;20033;-69
2021/11/11 00:19:17;;;;;;;12.00;10.23;;;3.60;99.90;;;;;;2071945;28;20030;-69
2021/11/11 00:20:23;;;;;;;13.57;10.80;;;3.60;99.90;;;;;;2071105;28;20026;-69
2021/11/11 00:21:23;;;;;;;19.17;10.75;;;3.60;99.90;;;;;;2071415;28;20026;-69
2021/11/11 00:22:24;;;;;;;16.60;9.77;;;3.60;99.90;;;;;;2071464;28;20152;-69
2021/11/11 00:23:24;;;;;;;15.18;10.50;;;3.60;99.90;;;;;;2070709;28;20574;-69
2021/11/11 00:24:25;;;;;;;15.75;10.70;;;3.60;99.90;;;;;;2070758;28;20470;-68
2021/11/11 00:25:26;;;;;;;14.55;10.73;;;3.60;99.90;;;;;;2071918;28;20060;-69
2021/11/11 00:26:28;;;;;;;15.82;11.55;;;3.60;99.90;;;;;;2071236;28;20034;-69
2021/11/11 00:27:28;;;;;;;15.05;10.90;;;3.60;99.90;;;;;;2070703;28;20025;-69
2021/11/11 00:28:29;;;;;;;13.13;10.50;;;3.60;99.90;;;;;;2070956;28;20084;-68
2021/11/11 00:29:30;;;;;;;13.75;10.55;;;3.60;99.90;;;;;;2071453;28;20061;-69
2021/11/11 00:30:31;;;;;;;14.65;11.75;;;3.60;99.90;;;;;;2071339;28;20106;-70
2021/11/11 00:31:31;;;;;;;13.93;10.85;;;3.60;99.90;;;;;;2071676;28;20014;-69
2021/11/11 00:32:32;;;;;;;17.15;10.98;;;3.60;99.90;;;;;;2071300;28;20409;-69
2021/11/11 00:33:32;;;;;;;16.80;11.45;;;3.60;99.90;;;;;;2071716;28;20026;-69
2021/11/11 00:34:33;;;;;;;12.77;10.18;;;3.60;99.90;;;;;;2071125;28;20037;-69
2021/11/11 00:35:33;;;;;;;14.18;10.48;;;3.50;99.90;;;;;;2071192;28;20117;-68
2021/11/11 00:36:34;;;;;;;16.15;11.30;;;3.50;99.90;;;;;;2071211;28;20747;-68
2021/11/11 00:37:35;;;;;;;15.43;10.73;;;3.50;99.90;;;;;;2070913;28;20066;-69
2021/11/11 00:38:36;;;;;;;12.38;10.35;;;3.50;99.90;;;;;;2070570;28;20021;-69
2021/11/11 00:39:37;;;;;;;17.08;10.07;;;3.50;99.90;;;;;;2071609;28;20030;-69
2021/11/11 00:40:38;;;;;;;14.70;10.82;;;3.50;99.90;;;;;;2071532;28;20105;-69
2021/11/11 00:41:38;;;;;;;14.55;11.20;;;3.50;99.90;;;;;;2071760;28;20050;-69
2021/11/11 00:42:39;;;;;;;12.15;10.68;;;3.50;99.90;;;;;;2071501;28;20030;-69
2021/11/11 00:43:40;;;;;;;14.45;10.50;;;3.50;99.90;;;;;;2071610;28;20010;-69
2021/11/11 00:44:41;;;;;;;15.75;11.55;;;3.50;99.90;;;;;;2071666;28;20529;-68
2021/11/11 00:45:41;;;;;;;14.60;10.90;;;3.50;99.90;;;;;;2071337;28;20556;-69
2021/11/11 00:46:42;;;;;;;15.30;11.70;;;3.50;99.90;;;;;;2071249;28;20334;-69
2021/11/11 00:47:44;;;;;;;14.35;11.57;;;3.50;99.90;;;;;;2070179;28;20049;-69
2021/11/11 00:48:45;;;;;;;14.27;10.77;;;3.50;99.90;;;;;;2070781;28;20091;-69
2021/11/11 00:49:45;;;;;;;14.95;10.88;;;3.50;99.90;;;;;;2071015;28;20014;-69
2021/11/11 00:50:46;;;;;;;13.73;10.57;;;3.50;99.90;;;;;;2071383;28;21116;-69
2021/11/11 00:51:46;;;;;;;13.45;10.27;;;3.50;99.90;;;;;;2071444;28;20536;-69
2021/11/11 00:52:47;;;;;;;12.95;10.15;;;3.40;99.90;;;;;;2071345;28;20505;-68
2021/11/11 00:53:48;;;;;;;12.00;10.15;;;3.40;99.90;;;;;;2071289;28;20093;-69
2021/11/11 00:54:48;;;;;;;13.93;10.77;;;3.40;99.90;;;;;;2071403;28;20018;-69
2021/11/11 00:55:49;;;;;;;15.98;10.60;;;3.40;99.90;;;;;;2078753;28;20021;-68
2021/11/11 00:56:50;;;;;;;17.17;11.85;;;3.40;99.90;;;;;;2078652;28;20056;-69
2021/11/11 00:57:51;;;;;;;12.55;9.73;;;3.40;99.90;;;;;;2071964;28;20416;-68
2021/11/11 00:58:51;;;;;;;14.40;10.40;;;3.40;99.90;;;;;;2065328;28;20030;-68
2021/11/11 00:59:52;;;;;;;13.77;10.55;;;3.40;99.90;;;;;;2063386;28;20018;-69
2021/11/11 01:00:53;;;;;;;13.88;10.15;;;3.40;99.90;;;;;;2071290;28;20355;-68
2021/11/11 01:01:54;;;;;;;14.75;10.32;;;3.40;99.90;;;;;;2071049;28;20394;-68
2021/11/11 01:02:56;;;;;;;16.55;10.65;;;3.30;99.90;;;;;;2071295;28;20029;-69
2021/11/11 01:03:58;;;;;;;12.73;10.32;;;3.40;99.90;;;;;;2071291;28;20025;-69
2021/11/11 01:04:59;;;;;;;12.30;10.43;;;3.40;99.90;;;;;;2071286;28;20060;-69
2021/11/11 01:06:00;;;;;;;15.60;10.55;;;3.40;99.90;;;;;;2071333;28;20030;-69
2021/11/11 01:07:00;;;;;;;12.82;9.88;;;3.30;99.90;;;;;;2071306;28;20041;-69
2021/11/11 01:08:02;;;;;;;15.80;10.52;;;3.30;99.90;;;;;;2070445;28;20038;-69
2021/11/11 01:09:03;;;;;;;14.45;11.40;;;3.30;99.90;;;;;;2070686;28;20065;-69
2021/11/11 01:10:08;;;;;;;13.60;11.07;;;3.30;99.90;;;;;;2071067;28;20025;-68
2021/11/11 01:11:09;;;;;;;14.90;10.50;;;3.40;99.90;;;;;;2070946;28;20528;-68
2021/11/11 01:12:10;;;;;;;11.40;10.20;;;3.30;99.90;;;;;;2062622;28;20109;-68
2021/11/11 01:13:10;;;;;;;13.07;10.57;;;3.30;99.90;;;;;;2066478;28;20033;-68
2021/11/11 01:14:11;;;;;;;14.70;12.35;;;3.30;99.90;;;;;;2071081;28;20022;-69
2021/11/11 01:15:15;;;;;;;16.10;11.25;;;3.30;99.90;;;;;;2071501;28;20065;-69
2021/11/11 01:16:16;;;;;;;14.00;10.90;;;3.30;99.90;;;;;;2070946;28;20084;-69
2021/11/11 01:17:17;;;;;;;14.32;11.18;;;3.30;99.90;;;;;;2071186;28;20018;-69
2021/11/11 01:18:17;;;;;;;16.15;11.18;;;3.30;99.90;;;;;;2067912;28;20033;-69
2021/11/11 01:19:19;;;;;;;13.77;10.85;;;3.30;99.90;;;;;;2071314;28;20032;-69
2021/11/11 01:20:20;;;;;;;15.50;11.30;;;3.30;99.90;;;;;;2071018;28;20117;-69
2021/11/11 01:21:21;;;;;;;16.08;10.90;;;3.30;99.90;;;;;;2070584;28;20065;-68
2021/11/11 01:22:21;;;;;;;13.13;10.23;;;3.30;99.90;;;;;;2070547;28;20083;-69
2021/11/11 01:23:22;;;;;;;16.20;12.25;;;3.30;99.90;;;;;;2070115;28;20029;-69
2021/11/11 01:24:23;;;;;;;16.27;10.98;;;3.30;99.90;;;;;;2071178;28;20080;-69
2021/11/11 01:25:27;;;;;;;16.52;11.43;;;3.30;99.90;;;;;;2071287;28;20030;-69
2021/11/11 01:26:28;;;;;;;14.48;10.85;;;3.30;99.90;;;;;;2071133;28;20501;-69
2021/11/11 01:27:28;;;;;;;14.38;11.43;;;3.30;99.90;;;;;;2070262;28;20390;-69
2021/11/11 01:28:29;;;;;;;16.80;11.52;;;3.20;99.90;;;;;;2071219;28;20029;-69
2021/11/11 01:29:30;;;;;;;15.93;11.57;;;3.20;99.90;;;;;;2067021;28;20026;-68
2021/11/11 01:30:31;;;;;;;15.43;11.43;;;3.20;99.90;;;;;;2074134;28;20025;-68
2021/11/11 01:31:31;;;;;;;15.88;11.98;;;3.20;99.90;;;;;;2072599;28;20036;-69
2021/11/11 01:32:32;;;;;;;13.18;9.85;;;3.20;99.90;;;;;;2078188;28;20449;-69
2021/11/11 01:33:33;;;;;;;14.68;11.30;;;3.20;99.90;;;;;;2072509;28;20026;-68
2021/11/11 01:34:34;;;;;;;13.07;10.93;;;3.20;99.90;;;;;;2072714;28;20075;-68
2021/11/11 01:35:34;;;;;;;15.25;12.10;;;3.20;99.90;;;;;;2072369;28;20029;-68
2021/11/11 01:36:35;;;;;;;12.88;11.15;;;3.20;99.90;;;;;;2072892;28;20097;-68
2021/11/11 01:37:41;;;;;;;15.38;11.57;;;3.20;99.90;;;;;;2072127;28;20052;-69
2021/11/11 01:38:41;;;;;;;14.98;11.35;;;3.20;99.90;;;;;;2072293;28;20017;-68
2021/11/11 01:39:42;;;;;;;19.42;13.18;;;3.20;99.90;;;;;;2064360;28;20045;-68
2021/11/11 01:40:43;;;;;;;15.23;11.00;;;3.20;99.90;;;;;;2068044;28;20021;-68
2021/11/11 01:41:46;;;;;;;18.98;12.73;;;3.20;99.90;;;;;;2072763;28;20023;-68
2021/11/11 01:42:53;;;;;;;18.23;12.73;;;3.20;99.90;;;;;;2072763;28;20033;-69
2021/11/11 01:43:53;;;;;;;16.30;11.25;;;3.20;99.90;;;;;;2072441;28;20025;-68
2021/11/11 01:44:55;;;;;;;15.13;11.93;;;3.10;99.90;;;;;;2072703;28;20030;-68
2021/11/11 01:45:56;;;;;;;14.68;11.82;;;3.10;99.90;;;;;;2072461;28;20026;-69
2021/11/11 01:46:56;;;;;;;15.85;11.77;;;3.20;99.90;;;;;;2072191;28;20033;-68
2021/11/11 01:47:59;;;;;;;14.43;11.30;;;3.10;99.90;;;;;;2071504;28;20109;-69
2021/11/11 01:48:59;;;;;;;18.85;12.07;;;3.10;99.90;;;;;;2072118;28;20087;-69
2021/11/11 01:50:00;;;;;;;17.77;12.05;;;3.10;99.90;;;;;;2070038;28;20052;-69
2021/11/11 01:51:00;;;;;;;16.45;12.00;;;3.10;99.90;;;;;;2072488;28;20164;-68
2021/11/11 01:52:01;;;;;;;16.27;12.20;;;3.10;99.90;;;;;;2072372;28;20025;-68
2021/11/11 01:53:02;;;;;;;19.15;12.30;;;3.10;99.90;;;;;;2072859;28;20030;-68
2021/11/11 01:54:04;;;;;;;16.45;12.15;;;3.10;99.90;;;;;;2071741;28;20022;-68
2021/11/11 01:55:05;;;;;;;15.70;11.93;;;3.10;99.90;;;;;;2071613;28;20037;-69
2021/11/11 01:56:06;;;;;;;18.40;13.38;;;3.10;99.90;;;;;;2064407;28;20033;-68
2021/11/11 01:57:07;;;;;;;17.50;13.93;;;3.10;99.90;;;;;;2069526;28;20037;-68
2021/11/11 01:58:08;;;;;;;15.90;12.68;;;3.10;99.90;;;;;;2066036;28;20121;-69
2021/11/11 01:59:09;;;;;;;16.38;12.13;;;3.10;99.90;;;;;;2072554;28;20517;-68
2021/11/11 02:00:23;;;;;;;22.25;12.95;;;3.10;99.90;;;;;;2070516;28;20703;-68
2021/11/11 02:01:24;;;;;;;17.08;11.90;;;3.10;99.90;;;;;;2069529;28;20030;-68
2021/11/11 02:02:27;;;;;;;20.13;13.85;;;3.10;99.90;;;;;;2073602;28;20022;-69
2021/11/11 02:03:28;;;;;;;16.27;12.18;;;3.10;99.90;;;;;;2069770;28;20029;-68
2021/11/11 02:04:28;;;;;;;19.67;13.20;;;3.00;99.90;;;;;;2080199;28;20500;-68
2021/11/11 02:05:31;;;;;;;18.48;12.38;;;3.00;99.90;;;;;;2073780;28;20567;-69
2021/11/11 02:06:31;;;;;;;16.95;11.40;;;3.00;99.90;;;;;;2072393;28;20108;-68
2021/11/11 02:07:32;;;;;;;15.25;11.63;;;3.00;99.90;;;;;;2071694;28;20030;-69
2021/11/11 02:08:32;;;;;;;16.75;11.93;;;3.00;99.90;;;;;;2071755;28;20049;-69
2021/11/11 02:09:33;;;;;;;16.95;12.45;;;3.00;99.90;;;;;;2072443;28;20021;-69
2021/11/11 02:10:35;;;;;;;17.23;11.93;;;3.00;99.90;;;;;;2072606;28;20026;-69
2021/11/11 02:11:35;;;;;;;16.30;12.38;;;3.00;99.90;;;;;;2072286;28;20093;-69
2021/11/11 02:12:36;;;;;;;16.10;12.45;;;3.00;99.90;;;;;;2071923;28;20029;-68
2021/11/11 02:13:37;;;;;;;17.77;13.30;;;3.00;99.90;;;;;;2072676;28;20029;-68
2021/11/11 02:14:38;;;;;;;15.93;12.05;;;3.00;99.90;;;;;;2072396;28;20034;-68
2021/11/11 02:15:38;;;;;;;24.88;14.32;;;3.00;99.90;;;;;;2072542;28;20454;-68
2021/11/11 02:16:39;;;;;;;20.48;13.90;;;3.00;99.90;;;;;;2072451;28;20038;-68
2021/11/11 02:17:40;;;;;;;18.35;12.38;;;3.00;99.90;;;;;;2071857;28;20401;-69
2021/11/11 02:18:41;;;;;;;18.27;13.18;;;3.00;99.90;;;;;;2071387;28;20473;-69
2021/11/11 02:19:44;;;;;;;21.75;13.63;;;3.00;99.90;;;;;;2070298;28;20042;-68
2021/11/11 02:20:45;;;;;;;16.33;11.98;;;3.00;99.90;;;;;;2064217;28;20383;-69
2021/11/11 02:21:53;;;;;;;17.98;13.38;;;3.00;99.90;;;;;;2071374;28;20025;-69
2021/11/11 02:22:56;;;;;;;22.17;12.80;;;3.00;99.90;;;;;;2072320;28;20034;-68
2021/11/11 02:23:56;;;;;;;16.80;12.32;;;3.00;99.90;;;;;;2072552;28;20018;-68
2021/11/11 02:24:57;;;;;;;17.92;13.50;;;3.00;99.90;;;;;;2072046;28;20018;-68
2021/11/11 02:25:58;;;;;;;17.00;12.93;;;3.00;99.90;;;;;;2072756;28;20049;-68
2021/11/11 02:26:59;;;;;;;16.55;12.55;;;3.00;99.90;;;;;;2072563;28;20033;-68
2021/11/11 02:28:04;;;;;;;16.05;12.68;;;3.00;99.90;;;;;;2072029;28;20034;-68
2021/11/11 02:29:05;;;;;;;15.35;12.77;;;3.00;99.90;;;;;;2072005;28;20096;-68
2021/11/11 02:30:07;;;;;;;17.90;13.02;;;3.00;99.90;;;;;;2072534;28;20029;-68
2021/11/11 02:31:08;;;;;;;16.85;13.18;;;3.00;99.90;;;;;;2071888;28;20076;-68
2021/11/11 02:32:09;;;;;;;20.00;14.00;;;3.00;99.90;;;;;;2072150;28;20121;-68
2021/11/11 02:33:19;;;;;;;16.52;12.75;;;3.00;99.90;;;;;;2072139;28;20076;-69
2021/11/11 02:34:21;;;;;;;20.35;14.35;;;3.00;99.90;;;;;;2072443;28;20033;-69
2021/11/11 02:35:22;;;;;;;16.20;12.50;;;2.90;99.90;;;;;;2072083;28;20029;-69
2021/11/11 02:36:22;;;;;;;20.00;13.63;;;3.00;99.90;;;;;;2072329;28;20026;-69
2021/11/11 02:37:27;;;;;;;17.75;12.98;;;3.00;99.90;;;;;;2072076;28;20530;-68
2021/11/11 02:38:28;;;;;;;19.42;13.90;;;3.00;99.90;;;;;;2064241;28;20045;-68
2021/11/11 02:39:34;;;;;;;22.05;13.77;;;2.90;99.90;;;;;;2070152;28;20025;-68
2021/11/11 02:40:35;;;;;;;16.98;13.15;;;2.90;99.90;;;;;;2072269;28;20033;-68
2021/11/11 02:41:36;;;;;;;18.63;12.80;;;2.90;99.90;;;;;;2072337;28;20022;-68
2021/11/11 02:42:38;;;;;;;20.00;12.77;;;2.90;99.90;;;;;;2072526;28;20026;-68
2021/11/11 02:43:38;;;;;;;20.20;13.48;;;2.90;99.90;;;;;;2071906;28;20017;-69
2021/11/11 02:44:56;;;;;;;20.80;13.15;;;2.90;99.90;;;;;;2072234;28;20149;-69
2021/11/11 02:45:57;;;;;;;19.40;13.23;;;2.90;99.90;;;;;;2070444;28;20660;-68
2021/11/11 02:46:58;;;;;;;20.35;13.43;;;2.90;99.90;;;;;;2071833;28;20433;-70
2021/11/11 02:48:00;;;;;;;18.80;14.38;;;2.90;99.90;;;;;;2071427;28;20041;-68
2021/11/11 02:49:01;;;;;;;18.98;14.07;;;2.90;99.90;;;;;;2071878;28;20592;-68
2021/11/11 02:50:06;;;;;;;17.45;13.15;;;2.90;99.90;;;;;;2071874;28;20418;-68
2021/11/11 02:51:06;;;;;;;17.77;12.95;;;2.90;99.90;;;;;;2064158;28;20030;-68
2021/11/11 02:52:07;;;;;;;19.02;13.13;;;2.90;99.90;;;;;;2067453;28;20021;-68
2021/11/11 02:53:09;;;;;;;18.38;12.98;;;2.90;99.90;;;;;;2071871;28;20030;-68
2021/11/11 02:54:09;;;;;;;17.52;13.25;;;2.90;99.90;;;;;;2071898;28;20083;-69
2021/11/11 02:55:11;;;;;;;18.45;13.65;;;2.90;99.90;;;;;;2072139;28;20033;-68
2021/11/11 02:56:11;;;;;;;17.60;13.20;;;2.90;99.90;;;;;;2072006;28;20018;-68
2021/11/11 02:57:23;;;;;;;17.85;12.85;;;2.90;99.90;;;;;;2072454;28;20081;-68
2021/11/11 02:58:25;;;;;;;17.13;12.90;;;2.90;99.90;;;;;;2070885;28;20025;-68
2021/11/11 02:59:27;;;;;;;18.90;12.80;;;2.80;99.90;;;;;;2072568;28;20030;-69
2021/11/11 03:00:32;;;;;;;22.27;13.35;;;2.90;99.90;;;;;;2072153;28;20093;-68
2021/11/11 03:01:33;;;;;;;21.23;13.25;;;2.80;99.90;;;;;;2071990;28;20083;-68
2021/11/11 03:02:35;;;;;;;16.85;12.57;;;2.80;99.90;;;;;;2070632;28;20025;-68
2021/11/11 03:03:36;;;;;;;17.23;12.68;;;2.80;99.90;;;;;;2071894;28;20382;-68
2021/11/11 03:04:36;;;;;;;16.52;12.45;;;2.80;99.90;;;;;;2071701;28;20030;-69
2021/11/11 03:05:38;;;;;;;17.55;12.95;;;2.80;99.90;;;;;;2070649;28;20030;-69
2021/11/11 03:06:39;;;;;;;17.60;13.00;;;2.80;99.90;;;;;;2072072;28;20045;-68
2021/11/11 03:07:41;;;;;;;18.48;13.15;;;2.80;99.90;;;;;;2072445;28;20030;-68
2021/11/11 03:08:43;;;;;;;19.42;13.15;;;2.80;99.90;;;;;;2071340;28;20014;-68
2021/11/11 03:09:45;;;;;;;18.25;13.23;;;2.80;99.90;;;;;;2071886;28;20017;-68
2021/11/11 03:10:47;;;;;;;18.77;14.00;;;2.80;99.90;;;;;;2071929;28;20030;-68
2021/11/11 03:11:48;;;;;;;17.17;12.15;;;2.80;99.90;;;;;;2072074;28;20050;-68
2021/11/11 03:12:50;;;;;;;16.38;12.40;;;2.80;99.90;;;;;;2071938;28;20370;-68
2021/11/11 03:13:50;;;;;;;16.90;13.35;;;2.80;99.90;;;;;;2071954;28;20057;-68
2021/11/11 03:14:53;;;;;;;19.52;12.93;;;2.80;99.90;;;;;;2072013;28;20033;-68
2021/11/11 03:15:55;;;;;;;19.48;13.40;;;2.80;99.90;;;;;;2068455;28;20105;-68
2021/11/11 03:16:56;;;;;;;20.63;13.23;;;2.80;99.90;;;;;;2070915;28;20041;-68
2021/11/11 03:17:58;;;;;;;18.38;13.52;;;2.80;99.90;;;;;;2071911;28;20034;-69
2021/11/11 03:18:58;;;;;;;18.80;13.48;;;2.80;99.90;;;;;;2071442;28;20022;-68
2021/11/11 03:19:59;;;;;;;20.00;13.65;;;2.80;99.90;;;;;;2072360;28;20084;-68
2021/11/11 03:21:00;;;;;;;23.50;13.50;;;2.80;99.90;;;;;;2071672;28;20030;-69
2021/11/11 03:22:06;;;;;;;19.33;15.13;;;2.80;99.90;;;;;;2072093;28;20030;-68
2021/11/11 03:23:06;;;;;;;21.63;13.27;;;2.80;99.90;;;;;;2071640;28;20410;-68
2021/11/11 03:24:07;;;;;;;21.83;13.50;;;2.80;99.90;;;;;;2071957;28;20321;-68
2021/11/11 03:25:09;;;;;;;17.15;12.82;;;2.80;99.90;;;;;;2071614;28;20095;-69
2021/11/11 03:26:09;;;;;;;18.42;13.90;;;2.80;99.90;;;;;;2070021;28;20030;-68
2021/11/11 03:27:11;;;;;;;20.50;14.68;;;2.80;99.90;;;;;;2072088;28;20033;-68
2021/11/11 03:28:11;;;;;;;18.45;13.40;;;2.80;99.90;;;;;;2071243;28;20030;-68
2021/11/11 03:29:12;;;;;;;17.25;13.63;;;2.80;99.90;;;;;;2071605;28;20068;-68
2021/11/11 03:30:16;;;;;;;19.02;14.30;;;2.80;99.90;;;;;;2071968;28;20069;-68
2021/11/11 03:31:16;;;;;;;20.02;14.00;;;2.80;99.90;;;;;;2071680;28;20065;-68
2021/11/11 03:32:17;;;;;;;20.10;13.25;;;2.80;99.90;;;;;;2071972;28;20033;-68
2021/11/11 03:33:18;;;;;;;21.88;14.25;;;2.70;99.90;;;;;;2071717;28;20105;-68
2021/11/11 03:34:19;;;;;;;19.33;13.70;;;2.70;99.90;;;;;;2072111;28;20034;-68
2021/11/11 03:35:20;;;;;;;19.55;13.75;;;2.70;99.90;;;;;;2071278;28;20026;-68
2021/11/11 03:36:21;;;;;;;17.45;12.93;;;2.70;99.90;;;;;;2070771;28;20429;-69
2021/11/11 03:37:22;;;;;;;20.08;13.90;;;2.70;99.90;;;;;;2071474;28;20026;-68
2021/11/11 03:38:22;;;;;;;16.50;13.23;;;2.70;99.90;;;;;;2071329;28;20025;-69
2021/11/11 03:39:24;;;;;;;20.90;14.43;;;2.70;99.90;;;;;;2071614;28;20062;-68
2021/11/11 03:40:30;;;;;;;16.05;12.73;;;2.70;99.90;;;;;;2071935;28;20037;-68
2021/11/11 03:41:31;;;;;;;21.73;14.32;;;2.70;99.90;;;;;;2071622;28;20030;-68
2021/11/11 03:42:32;;;;;;;20.45;14.13;;;2.70;99.90;;;;;;2071698;28;20029;-68
2021/11/11 03:43:33;;;;;;;20.70;14.00;;;2.70;99.90;;;;;;2071671;28;20069;-68
2021/11/11 03:44:33;;;;;;;19.67;14.00;;;2.70;99.90;;;;;;2071981;28;20029;-68
2021/11/11 03:45:35;;;;;;;20.15;14.50;;;2.70;99.90;;;;;;2071278;28;20076;-69
2021/11/11 03:46:35;;;;;;;22.02;14.50;;;2.70;99.90;;;;;;2071009;28;20084;-69
2021/11/11 03:47:36;;;;;;;17.73;13.25;;;2.70;99.90;;;;;;2070636;28;20079;-68
2021/11/11 03:48:37;;;;;;;23.25;15.05;;;2.70;99.90;;;;;;2070990;28;20053;-69
2021/11/11 03:49:40;;;;;;;17.80;13.73;;;2.70;99.90;;;;;;2067924;28;20033;-69
2021/11/11 03:50:40;;;;;;;24.42;15.60;;;2.70;99.90;;;;;;2068143;28;20014;-68
2021/11/11 03:51:42;;;;;;;21.98;14.77;;;2.70;99.90;;;;;;2071464;28;20153;-68
2021/11/11 03:52:43;;;;;;;21.40;15.20;;;2.70;99.90;;;;;;2071907;28;20045;-68
2021/11/11 03:53:45;;;;;;;18.33;14.20;;;2.70;99.90;;;;;;2071502;28;20161;-68
2021/11/11 03:54:46;;;;;;;19.17;14.27;;;2.70;99.90;;;;;;2071597;28;20022;-68
2021/11/11 03:55:46;;;;;;;21.85;13.65;;;2.70;99.90;;;;;;2070937;28;20119;-68
2021/11/11 03:56:49;;;;;;;22.35;15.13;;;2.70;99.90;;;;;;2071660;28;20021;-68
2021/11/11 03:57:51;;;;;;;22.25;14.60;;;2.70;99.90;;;;;;2071824;28;20033;-69
2021/11/11 03:58:51;;;;;;;20.25;14.23;;;2.70;99.90;;;;;;2071188;28;20049;-68
2021/11/11 03:59:52;;;;;;;21.80;15.65;;;2.70;99.90;;;;;;2071576;28;20025;-68
2021/11/11 04:00:53;;;;;;;21.88;15.25;;;2.70;99.90;;;;;;2071112;28;20029;-68
2021/11/11 04:01:55;;;;;;;25.27;14.93;;;2.70;99.90;;;;;;2071928;28;20060;-69
2021/11/11 04:02:56;;;;;;;22.10;14.93;;;2.70;99.90;;;;;;2071370;28;20022;-68
2021/11/11 04:03:56;;;;;;;23.67;15.70;;;2.70;99.90;;;;;;2071618;28;20053;-68
2021/11/11 04:04:57;;;;;;;19.42;13.40;;;2.70;99.90;;;;;;2071509;28;20044;-68
2021/11/11 04:05:57;;;;;;;21.58;14.50;;;2.70;99.90;;;;;;2071719;28;20030;-68
2021/11/11 04:06:58;;;;;;;21.95;16.08;;;2.60;99.90;;;;;;2071254;28;20054;-68
2021/11/11 04:07:58;;;;;;;20.17;14.32;;;2.60;99.90;;;;;;2071689;28;20033;-69
2021/11/11 04:09:02;;;;;;;19.55;14.23;;;2.60;99.90;;;;;;2070295;28;20034;-68
2021/11/11 04:10:04;;;;;;;22.50;15.27;;;2.60;99.90;;;;;;2071066;28;20022;-68
2021/11/11 04:11:05;;;;;;;21.83;15.45;;;2.60;99.90;;;;;;2071061;28;20072;-68
2021/11/11 04:12:06;;;;;;;19.48;13.60;;;2.60;99.90;;;;;;2071110;28;20026;-72
2021/11/11 04:13:07;;;;;;;20.27;14.75;;;2.60;99.90;;;;;;2071605;28;20389;-68
2021/11/11 04:14:08;;;;;;;20.77;14.15;;;2.60;99.90;;;;;;2071529;28;20022;-68
2021/11/11 04:15:10;;;;;;;21.95;14.82;;;2.60;99.90;;;;;;2071509;28;20018;-68
2021/11/11 04:16:11;;;;;;;19.20;14.48;;;2.60;99.90;;;;;;2070367;28;20026;-68
2021/11/11 04:17:12;;;;;;;21.77;15.10;;;2.60;99.90;;;;;;2071678;28;20040;-68
2021/11/11 04:18:13;;;;;;;21.30;14.90;;;2.60;99.90;;;;;;2070866;28;20513;-68
2021/11/11 04:19:14;;;;;;;21.20;14.50;;;2.60;99.90;;;;;;2071331;28;20474;-68
2021/11/11 04:20:14;;;;;;;22.33;14.27;;;2.50;99.90;;;;;;2071446;28;20038;-68
2021/11/11 04:21:17;;;;;;;19.27;14.75;;;2.50;99.90;;;;;;2071510;28;20053;-68
2021/11/11 04:22:19;;;;;;;21.75;14.82;;;2.50;99.90;;;;;;2071511;28;20026;-69
2021/11/11 04:23:21;;;;;;;24.48;15.07;;;2.50;99.90;;;;;;2070674;28;20033;-68
2021/11/11 04:24:22;;;;;;;22.48;15.13;;;2.50;99.90;;;;;;2071144;28;20134;-68
2021/11/11 04:26:00;;;;;;;19.02;14.07;;;2.50;99.90;;;;;;2071286;28;20213;-68
2021/11/11 04:26:55;;;;;;;22.38;14.52;;;2.50;99.90;;;;;;2070913;28;20025;-68
2021/11/11 04:28:02;;;;;;;21.45;14.52;;;2.50;99.90;;;;;;2071411;28;20072;-68
2021/11/11 04:29:12;;;;;;;22.45;14.57;;;2.50;99.90;;;;;;2071461;28;20160;-68
2021/11/11 04:30:24;;;;;;;21.33;14.35;;;2.50;99.90;;;;;;2071767;28;20022;-69
2021/11/11 04:32:26;;;;;;;20.15;14.43;;;2.50;99.90;;;;;;2071179;28;20430;-68
2021/11/11 04:33:28;;;;;;;22.40;15.55;;;2.50;99.90;;;;;;2071530;28;20088;-68
2021/11/11 04:34:31;;;;;;;21.35;14.57;;;2.50;99.90;;;;;;2071541;28;20030;-68
2021/11/11 04:35:32;;;;;;;23.60;16.27;;;2.50;99.90;;;;;;2071480;28;20076;-68
2021/11/11 04:40:15;;;;;;;18.55;14.43;;;2.50;99.90;;;;;;2071228;28;20105;-68
2021/11/11 04:47:29;;;;;;;25.63;16.20;;;2.40;99.90;;;;;;2068623;28;20392;-68
2021/11/11 04:49:10;;;;;;;22.10;15.18;;;2.50;99.90;;;;;;2070782;28;20091;-68
2021/11/11 05:00:47;;;;;;;23.48;14.70;;;2.30;99.90;;;;;;2071529;28;20026;-68
2021/11/11 05:01:54;;;;;;;;;;;2.30;99.90;;;;;;2072207;28;20018;-68
2021/11/11 05:03:11;;;;;;;18.58;13.25;;;2.20;99.90;;;;;;2073088;28;19909;-68
2021/11/11 05:04:11;;;;;;;18.10;14.15;;;2.30;99.90;;;;;;2073088;28;20576;-69
2021/11/11 05:05:12;;;;;;;19.10;14.50;;;2.20;99.90;;;;;;2072761;28;20394;-68
2021/11/11 05:06:14;;;;;;;22.15;15.90;;;2.30;99.90;;;;;;2072579;28;20030;-68
2021/11/11 05:07:14;;;;;;;20.73;15.13;;;2.20;99.90;;;;;;2072806;28;20026;-68
2021/11/11 05:08:15;;;;;;;26.08;16.67;;;2.30;99.90;;;;;;2072401;28;20036;-68
2021/11/11 05:09:15;;;;;;;19.67;15.18;;;2.30;99.90;;;;;;2072877;28;20109;-68
2021/11/11 05:10:17;;;;;;;20.35;15.00;;;2.30;99.90;;;;;;2073060;28;20022;-68
2021/11/11 05:11:18;;;;;;;20.80;14.35;;;2.30;99.90;;;;;;2072473;28;20021;-68
2021/11/11 05:12:19;;;;;;;20.52;14.00;;;2.30;99.90;;;;;;2072956;28;20090;-68
2021/11/11 05:13:20;;;;;;;21.52;15.35;;;2.30;99.90;;;;;;2072833;28;20098;-68
2021/11/11 05:14:20;;;;;;;22.92;15.18;;;2.30;99.90;;;;;;2073080;28;20030;-68
2021/11/11 05:15:21;;;;;;;19.60;14.75;;;2.30;99.90;;;;;;2072680;28;20022;-68
2021/11/11 05:16:22;;;;;;;19.45;14.55;;;2.30;99.90;;;;;;2072413;28;20038;-68
2021/11/11 05:17:24;;;;;;;22.73;15.55;;;2.30;99.90;;;;;;2072543;28;20034;-68
2021/11/11 05:18:25;;;;;;;18.80;14.52;;;2.30;99.90;;;;;;2069324;28;20474;-68
2021/11/11 05:19:25;;;;;;;21.25;15.88;;;2.30;99.90;;;;;;2072411;28;20689;-68
2021/11/11 05:20:26;;;;;;;22.60;15.48;;;2.30;99.90;;;;;;2071468;28;20034;-68
2021/11/11 05:21:27;;;;;;;22.15;14.68;;;2.30;99.90;;;;;;2071149;28;20078;-69
2021/11/11 05:22:27;;;;;;;20.35;14.48;;;2.30;99.90;;;;;;2073258;28;20037;-68
2021/11/11 05:23:28;;;;;;;21.58;14.60;;;2.30;99.90;;;;;;2072313;28;20026;-68
2021/11/11 05:24:29;;;;;;;22.17;13.88;;;2.40;99.90;;;;;;2072410;28;20747;-68
2021/11/11 05:25:29;;;;;;;21.30;15.55;;;2.30;99.90;;;;;;2067606;28;20049;-68
2021/11/11 05:26:30;;;;;;;20.65;14.27;;;2.30;99.90;;;;;;2070732;28;20433;-68
2021/11/11 05:27:30;;;;;;;20.52;14.65;;;2.30;99.90;;;;;;2077450;28;20101;-68
2021/11/11 05:28:31;;;;;;;22.50;16.45;;;2.30;99.90;;;;;;2070256;28;20080;-69
2021/11/11 05:29:33;;;;;;;18.83;14.10;;;2.40;99.90;;;;;;2072985;28;20017;-68
2021/11/11 05:30:33;;;;;;;19.58;15.02;;;2.30;99.90;;;;;;2073559;28;20030;-68
2021/11/11 05:31:34;;;;;;;23.48;15.13;;;2.30;99.90;;;;;;2070744;28;20056;-68
2021/11/11 05:32:35;;;;;;;22.27;15.65;;;2.30;99.90;;;;;;2072589;28;20513;-68
2021/11/11 05:33:37;;;;;;;17.88;14.18;;;2.30;99.90;;;;;;2073910;28;20482;-68
2021/11/11 05:34:37;;;;;;;22.15;13.95;;;2.30;99.90;;;;;;2072278;28;20410;-68
2021/11/11 05:35:39;;;;;;;19.83;13.93;;;2.30;99.90;;;;;;2072744;28;20028;-68
2021/11/11 05:36:40;;;;;;;24.20;16.05;;;2.30;99.90;;;;;;2071597;28;20024;-68
2021/11/11 05:37:43;;;;;;;22.90;17.08;;;2.30;99.90;;;;;;2072114;28;20038;-68
2021/11/11 05:38:44;;;;;;;20.15;14.80;;;2.30;99.90;;;;;;2067107;28;20081;-69
2021/11/11 05:39:44;;;;;;;19.80;15.05;;;2.30;99.90;;;;;;2069629;28;20100;-68